createdAt,value
2023-01-13T00:00:21.532Z,0.98
2023-01-13T00:01:25.878Z,1.35
2023-01-13T00:02:27.783Z,1.60
2023-01-13T00:03:29.625Z,1.58
2023-01-13T00:04:31.915Z,1.52
2023-01-13T00:05:33.861Z,1.35
2023-01-13T00:06:35.628Z,1.42
2023-01-13T00:07:40.163Z,1.60
2023-01-13T00:08:42.035Z,1.65
2023-01-13T00:09:43.814Z,1.50
2023-01-13T00:10:48.517Z,1.50
2023-01-13T00:11:50.402Z,1.13
2023-01-13T00:12:53.541Z,1.50
2023-01-13T00:13:55.996Z,1.13
2023-01-13T00:14:57.901Z,1.33
2023-01-13T00:16:07.719Z,1.85
2023-01-13T00:17:09.687Z,1.20
2023-01-13T00:18:11.524Z,1.42
2023-01-13T00:19:13.302Z,1.92
2023-01-13T00:20:15.611Z,1.10
2023-01-13T00:21:23.242Z,1.27
2023-01-13T00:22:25.012Z,1.40
2023-01-13T00:23:31.673Z,1.33
2023-01-13T00:24:33.533Z,1.38
2023-01-13T00:25:35.314Z,2.15
2023-01-13T00:26:37.114Z,0.98
2023-01-13T00:27:39.387Z,1.20
2023-01-13T00:28:41.649Z,1.45
2023-01-13T00:29:43.406Z,1.30
2023-01-13T00:30:45.602Z,1.63
2023-01-13T00:31:49.200Z,1.20
2023-01-13T00:32:50.985Z,1.58
2023-01-13T00:33:53.315Z,1.55
2023-01-13T00:34:55.181Z,1.40
2023-01-13T00:35:58.563Z,0.90
2023-01-13T00:37:00.423Z,1.15
2023-01-13T00:38:02.310Z,1.30
2023-01-13T00:39:04.616Z,1.45
2023-01-13T00:40:07.078Z,1.52
2023-01-13T00:41:12.016Z,1.30
2023-01-13T00:42:32.568Z,1.90
2023-01-13T00:43:36.044Z,1.70
2023-01-13T00:44:37.956Z,0.75
2023-01-13T00:45:39.762Z,1.10
2023-01-13T00:46:41.690Z,1.02
2023-01-13T00:47:43.491Z,0.93
2023-01-13T00:48:46.985Z,1.45
2023-01-13T00:49:50.064Z,1.73
2023-01-13T00:51:07.202Z,1.45
2023-01-13T00:52:09.039Z,2.22
2023-01-13T00:53:10.976Z,2.47
2023-01-13T00:54:12.829Z,2.08
2023-01-13T00:55:14.821Z,1.88
2023-01-13T00:56:39.009Z,1.42
2023-01-13T00:57:42.242Z,1.30
2023-01-13T00:58:45.717Z,1.42
2023-01-13T00:59:49.595Z,1.27
2023-01-13T01:00:51.747Z,1.25
2023-01-13T01:01:53.695Z,1.65
2023-01-13T01:02:55.906Z,1.33
2023-01-13T01:03:57.705Z,1.15
2023-01-13T01:05:00.059Z,1.70
2023-01-13T01:06:08.372Z,1.25
2023-01-13T01:07:10.122Z,1.23
2023-01-13T01:08:11.956Z,1.65
2023-01-13T01:09:15.759Z,0.93
2023-01-13T01:10:17.635Z,1.98
2023-01-13T01:11:22.865Z,1.38
2023-01-13T01:12:24.668Z,1.30
2023-01-13T01:13:26.502Z,1.70
2023-01-13T01:14:28.439Z,1.27
2023-01-13T01:15:30.195Z,1.15
2023-01-13T01:16:33.767Z,1.58
2023-01-13T01:17:36.686Z,1.10
2023-01-13T01:18:41.269Z,2.67
2023-01-13T01:19:43.104Z,1.25
2023-01-13T01:20:44.858Z,0.98
2023-01-13T01:21:46.878Z,1.08
2023-01-13T01:22:48.638Z,1.35
2023-01-13T01:23:50.824Z,1.20
2023-01-13T01:24:52.630Z,1.27
2023-01-13T01:25:54.426Z,1.30
2023-01-13T01:26:56.200Z,1.48
2023-01-13T01:27:57.987Z,1.20
2023-01-13T01:29:02.267Z,1.75
2023-01-13T01:30:04.491Z,1.30
2023-01-13T01:31:12.697Z,1.58
2023-01-13T01:32:14.495Z,1.08
2023-01-13T01:33:16.884Z,1.13
2023-01-13T01:34:18.924Z,1.35
2023-01-13T01:35:20.665Z,1.48
2023-01-13T01:36:24.223Z,1.50
2023-01-13T01:37:26.023Z,1.20
2023-01-13T01:38:28.777Z,1.35
2023-01-13T01:39:30.842Z,1.73
2023-01-13T01:40:32.737Z,0.90
2023-01-13T01:41:36.057Z,1.13
2023-01-13T01:42:56.176Z,1.23
2023-01-13T01:43:59.289Z,1.25
2023-01-13T01:45:13.672Z,1.88
2023-01-13T01:46:15.465Z,0.85
2023-01-13T01:47:18.854Z,1.38
2023-01-13T01:48:20.904Z,1.20
2023-01-13T01:49:29.195Z,1.40
2023-01-13T01:50:31.661Z,1.10
2023-01-13T01:51:39.004Z,1.30
2023-01-13T01:52:43.438Z,1.83
2023-01-13T01:53:48.051Z,1.40
2023-01-13T01:54:56.007Z,1.10
2023-01-13T01:55:59.514Z,2.05
2023-01-13T01:57:01.529Z,2.55
2023-01-13T01:58:09.297Z,1.40
2023-01-13T01:59:12.432Z,1.88
2023-01-13T02:00:14.918Z,1.40
2023-01-13T02:01:17.216Z,1.50
2023-01-13T02:02:19.170Z,1.40
2023-01-13T02:03:21.312Z,1.33
2023-01-13T02:04:29.622Z,1.05
2023-01-13T02:05:31.465Z,1.00
2023-01-13T02:06:33.390Z,1.05
2023-01-13T02:07:38.470Z,0.93
2023-01-13T02:08:41.392Z,1.42
2023-01-13T02:09:43.471Z,2.20
2023-01-13T02:10:50.677Z,1.10
2023-01-13T02:12:11.039Z,1.30
2023-01-13T02:13:13.686Z,0.82
2023-01-13T02:14:15.991Z,1.73
2023-01-13T02:15:23.635Z,1.17
2023-01-13T02:16:25.851Z,1.10
2023-01-13T02:17:35.749Z,1.10
2023-01-13T02:19:02.048Z,1.55
2023-01-13T02:20:28.124Z,3.60
2023-01-13T02:22:22.324Z,1.27
2023-01-13T02:23:45.867Z,1.05
2023-01-13T02:25:41.559Z,1.25
2023-01-13T02:26:59.233Z,0.85
2023-01-13T02:28:39.660Z,0.93
2023-01-13T02:30:27.146Z,1.65
2023-01-13T02:31:44.759Z,1.27
2023-01-13T02:32:53.910Z,1.10
2023-01-13T02:34:09.907Z,0.98
2023-01-13T02:35:23.174Z,0.80
2023-01-13T02:36:39.936Z,1.10
2023-01-13T02:37:44.067Z,1.52
2023-01-13T02:38:54.302Z,2.05
2023-01-13T02:40:04.712Z,1.48
2023-01-13T02:41:35.674Z,0.85
2023-01-13T02:43:01.937Z,1.08
2023-01-13T02:44:06.772Z,1.15
2023-01-13T02:45:32.364Z,0.90
2023-01-13T02:46:56.825Z,1.05
2023-01-13T02:48:02.082Z,1.73
2023-01-13T02:49:08.419Z,1.50
2023-01-13T02:50:18.061Z,0.95
2023-01-13T02:51:24.109Z,0.82
2023-01-13T02:52:37.895Z,1.05
2023-01-13T02:53:57.520Z,1.00
2023-01-13T02:55:06.919Z,0.65
2023-01-13T02:56:10.391Z,0.70
2023-01-13T02:57:14.863Z,0.98
2023-01-13T02:58:21.339Z,1.08
2023-01-13T02:59:26.270Z,1.15
2023-01-13T03:00:28.811Z,1.55
2023-01-13T03:01:30.722Z,1.63
2023-01-13T03:02:32.627Z,1.35
2023-01-13T03:03:34.646Z,1.33
2023-01-13T03:05:05.943Z,1.23
2023-01-13T03:06:44.360Z,0.95
2023-01-13T03:07:55.772Z,1.15
2023-01-13T03:09:06.990Z,2.25
2023-01-13T03:10:29.828Z,1.35
2023-01-13T03:11:42.881Z,0.85
2023-01-13T03:12:59.173Z,0.95
2023-01-13T03:14:24.024Z,0.90
2023-01-13T03:15:43.618Z,1.27
2023-01-13T03:17:15.068Z,0.80
2023-01-13T03:18:24.204Z,0.93
2023-01-13T03:19:34.641Z,1.13
2023-01-13T03:20:43.815Z,0.82
2023-01-13T03:22:09.069Z,1.05
2023-01-13T03:23:26.623Z,1.13
2023-01-13T03:24:38.968Z,1.00
2023-01-13T03:25:50.708Z,1.02
2023-01-13T03:27:23.875Z,1.50
2023-01-13T03:28:37.641Z,0.60
2023-01-13T03:29:45.577Z,2.35
2023-01-13T03:30:55.382Z,1.13
2023-01-13T03:32:03.037Z,0.98
2023-01-13T03:33:10.374Z,0.75
2023-01-13T03:34:19.690Z,1.45
2023-01-13T03:35:36.852Z,1.00
2023-01-13T03:36:40.915Z,1.42
2023-01-13T03:37:47.053Z,1.17
2023-01-13T03:38:54.470Z,1.08
2023-01-13T03:40:02.302Z,1.50
2023-01-13T03:41:12.006Z,1.35
2023-01-13T03:42:19.629Z,1.00
2023-01-13T03:43:50.317Z,1.23
2023-01-13T03:45:03.819Z,0.80
2023-01-13T03:46:12.875Z,1.55
2023-01-13T03:47:51.788Z,0.70
2023-01-13T03:48:58.390Z,1.02
2023-01-13T03:50:12.559Z,1.20
2023-01-13T03:51:19.664Z,1.30
2023-01-13T03:52:49.178Z,1.00
2023-01-13T03:53:57.248Z,0.82
2023-01-13T03:55:10.938Z,0.95
2023-01-13T03:56:29.240Z,0.90
2023-01-13T03:57:37.554Z,1.05
2023-01-13T03:58:44.246Z,0.85
2023-01-13T03:59:51.119Z,1.20
2023-01-13T04:01:14.193Z,0.80
2023-01-13T04:02:42.868Z,1.33
2023-01-13T04:04:04.320Z,1.30
2023-01-13T04:05:09.966Z,1.30
2023-01-13T04:06:17.110Z,1.10
2023-01-13T04:07:32.991Z,0.90
2023-01-13T04:08:36.663Z,1.05
2023-01-13T04:09:44.429Z,1.65
2023-01-13T04:10:53.966Z,1.70
2023-01-13T04:12:17.819Z,0.90
2023-01-13T04:13:23.497Z,1.55
2023-01-13T04:14:27.990Z,1.52
2023-01-13T04:15:33.894Z,1.33
2023-01-13T04:16:37.739Z,2.40
2023-01-13T04:17:39.630Z,1.40
2023-01-13T04:18:41.803Z,1.52
2023-01-13T04:19:43.710Z,1.30
2023-01-13T04:20:48.705Z,1.13
2023-01-13T04:21:50.490Z,1.88
2023-01-13T04:22:52.265Z,0.80
2023-01-13T04:23:54.089Z,1.73
2023-01-13T04:24:55.977Z,1.30
2023-01-13T04:25:57.780Z,1.20
2023-01-13T04:26:59.732Z,1.70
2023-01-13T04:28:01.845Z,1.05
2023-01-13T04:29:03.617Z,1.63
2023-01-13T04:30:06.805Z,1.25
2023-01-13T04:31:08.653Z,0.98
2023-01-13T04:32:10.548Z,0.85
2023-01-13T04:33:13.691Z,1.00
2023-01-13T04:34:15.628Z,1.73
2023-01-13T04:35:17.388Z,2.97
2023-01-13T04:36:19.728Z,2.25
2023-01-13T04:37:21.642Z,1.65
2023-01-13T04:38:23.514Z,1.38
2023-01-13T04:39:25.288Z,2.72
2023-01-13T04:40:27.148Z,0.98
2023-01-13T04:41:49.282Z,1.50
2023-01-13T04:42:51.076Z,0.88
2023-01-13T04:43:53.000Z,1.73
2023-01-13T04:44:54.976Z,2.05
2023-01-13T04:45:56.821Z,1.15
2023-01-13T04:46:58.887Z,2.60
2023-01-13T04:48:00.754Z,1.17
2023-01-13T04:49:02.543Z,1.20
2023-01-13T04:50:04.938Z,2.05
2023-01-13T04:51:06.910Z,1.40
2023-01-13T04:52:08.747Z,1.60
2023-01-13T04:53:10.707Z,1.35
2023-01-13T04:54:12.635Z,1.88
2023-01-13T04:55:14.558Z,2.20
2023-01-13T04:56:16.548Z,1.75
2023-01-13T04:57:18.469Z,1.08
2023-01-13T04:58:21.032Z,1.50
2023-01-13T04:59:23.178Z,1.48
2023-01-13T05:00:25.090Z,1.63
2023-01-13T05:01:26.995Z,1.58
2023-01-13T05:02:28.784Z,1.83
2023-01-13T05:03:30.636Z,1.83
2023-01-13T05:04:32.495Z,2.35
2023-01-13T05:05:34.655Z,1.20
2023-01-13T05:06:36.529Z,0.90
2023-01-13T05:07:38.623Z,1.45
2023-01-13T05:08:40.517Z,1.52
2023-01-13T05:09:42.521Z,1.15
2023-01-13T05:10:44.295Z,1.60
2023-01-13T05:12:04.580Z,1.52
2023-01-13T05:13:24.900Z,0.95
2023-01-13T05:14:45.978Z,1.50
2023-01-13T05:16:06.994Z,0.95
2023-01-13T05:17:10.836Z,1.58
2023-01-13T05:18:13.234Z,1.20
2023-01-13T05:19:15.029Z,1.20
2023-01-13T05:20:16.954Z,0.95
2023-01-13T05:21:37.456Z,1.55
2023-01-13T05:22:57.833Z,1.65
2023-01-13T05:24:18.383Z,0.90
2023-01-13T05:25:24.587Z,0.98
2023-01-13T05:26:26.357Z,1.00
2023-01-13T05:27:28.417Z,1.83
2023-01-13T05:28:34.247Z,1.08
2023-01-13T05:29:36.076Z,1.15
2023-01-13T05:30:42.524Z,1.33
2023-01-13T05:31:44.304Z,1.02
2023-01-13T05:32:46.216Z,1.77
2023-01-13T05:33:47.969Z,1.25
2023-01-13T05:34:50.093Z,1.00
2023-01-13T05:35:52.025Z,0.98
2023-01-13T05:36:53.860Z,1.23
2023-01-13T05:37:56.455Z,1.00
2023-01-13T05:38:58.209Z,1.70
2023-01-13T05:40:18.812Z,1.13
2023-01-13T05:41:39.292Z,1.75
2023-01-13T05:42:59.559Z,1.52
2023-01-13T05:44:01.487Z,2.72
2023-01-13T05:45:03.505Z,1.42
2023-01-13T05:46:08.841Z,3.15
2023-01-13T05:47:10.780Z,2.55
2023-01-13T05:48:13.479Z,1.95
2023-01-13T05:49:15.246Z,2.50
2023-01-13T05:50:17.887Z,2.72
2023-01-13T05:51:22.528Z,2.45
2023-01-13T05:52:24.380Z,2.67
2023-01-13T05:53:26.547Z,2.17
2023-01-13T05:54:28.314Z,2.20
2023-01-13T05:55:30.227Z,3.25
2023-01-13T05:56:31.979Z,1.95
2023-01-13T05:57:33.775Z,2.28
2023-01-13T05:58:36.280Z,2.63
2023-01-13T05:59:38.101Z,2.15
2023-01-13T06:00:41.795Z,2.25
2023-01-13T06:01:43.853Z,3.67
2023-01-13T06:02:45.665Z,1.75
2023-01-13T06:03:47.443Z,3.60
2023-01-13T06:04:49.392Z,1.52
2023-01-13T06:05:53.523Z,2.05
2023-01-13T06:06:56.048Z,1.90
2023-01-13T06:07:59.103Z,2.33
2023-01-13T06:09:00.955Z,2.45
2023-01-13T06:10:02.880Z,2.47
2023-01-13T06:11:04.838Z,1.63
2023-01-13T06:12:06.714Z,2.38
2023-01-13T06:13:08.727Z,3.83
2023-01-13T06:14:10.480Z,1.90
2023-01-13T06:15:12.338Z,1.85
2023-01-13T06:16:14.220Z,2.47
2023-01-13T06:17:16.704Z,1.60
2023-01-13T06:18:18.863Z,2.25
2023-01-13T06:19:20.714Z,1.95
2023-01-13T06:20:23.264Z,1.95
2023-01-13T06:21:25.237Z,2.17
2023-01-13T06:22:32.427Z,2.88
2023-01-13T06:23:35.323Z,3.05
2023-01-13T06:24:37.367Z,1.20
2023-01-13T06:26:16.265Z,1.63
2023-01-13T06:27:18.531Z,2.50
2023-01-13T06:28:20.355Z,1.85
2023-01-13T06:29:22.124Z,2.33
2023-01-13T06:30:24.150Z,1.42
2023-01-13T06:31:28.803Z,1.42
2023-01-13T06:32:36.616Z,1.65
2023-01-13T06:33:53.545Z,1.63
2023-01-13T06:35:00.462Z,1.75
2023-01-13T06:36:07.123Z,1.58
2023-01-13T06:37:09.039Z,1.67
2023-01-13T06:38:15.667Z,1.58
2023-01-13T06:39:21.859Z,1.27
2023-01-13T06:40:24.830Z,1.77
2023-01-13T06:41:47.498Z,1.70
2023-01-13T06:43:08.803Z,1.95
2023-01-13T06:44:10.645Z,1.45
2023-01-13T06:45:12.529Z,1.42
2023-01-13T06:46:14.429Z,2.35
2023-01-13T06:47:16.869Z,1.58
2023-01-13T06:48:22.223Z,1.85
2023-01-13T06:49:24.007Z,1.90
2023-01-13T06:50:26.248Z,1.55
2023-01-13T06:51:28.000Z,2.53
2023-01-13T06:52:30.583Z,1.80
2023-01-13T06:53:32.557Z,2.22
2023-01-13T06:54:34.785Z,1.98
2023-01-13T06:55:36.865Z,1.40
2023-01-13T06:56:38.632Z,1.92
2023-01-13T06:57:50.743Z,1.92
2023-01-13T06:58:52.494Z,1.42
2023-01-13T06:59:54.336Z,2.83
2023-01-13T07:01:00.576Z,2.28
2023-01-13T07:02:03.219Z,2.13
2023-01-13T07:03:13.187Z,1.52
2023-01-13T07:04:15.068Z,2.15
2023-01-13T07:05:17.809Z,1.48
2023-01-13T07:06:19.748Z,1.83
2023-01-13T07:07:21.571Z,1.40
2023-01-13T07:08:24.834Z,1.48
2023-01-13T07:09:26.668Z,1.45
2023-01-13T07:10:28.518Z,1.40
2023-01-13T07:11:30.350Z,2.30
2023-01-13T07:12:52.133Z,2.10
2023-01-13T07:14:12.763Z,1.63
2023-01-13T07:15:20.497Z,1.75
2023-01-13T07:16:24.342Z,1.85
2023-01-13T07:17:26.297Z,1.25
2023-01-13T07:18:31.830Z,2.08
2023-01-13T07:19:33.700Z,1.90
2023-01-13T07:20:35.645Z,1.63
2023-01-13T07:21:37.499Z,1.98
2023-01-13T07:22:39.263Z,1.50
2023-01-13T07:23:41.973Z,1.88
2023-01-13T07:24:43.829Z,1.45
2023-01-13T07:25:45.652Z,2.60
2023-01-13T07:26:47.584Z,2.58
2023-01-13T07:27:49.769Z,2.38
2023-01-13T07:28:51.624Z,1.70
2023-01-13T07:29:53.502Z,2.08
2023-01-13T07:30:55.580Z,2.42
2023-01-13T07:31:57.375Z,1.70
2023-01-13T07:32:59.262Z,1.42
2023-01-13T07:34:01.086Z,1.58
2023-01-13T07:35:05.573Z,1.45
2023-01-13T07:36:07.948Z,1.60
2023-01-13T07:37:09.834Z,2.33
2023-01-13T07:38:12.071Z,1.80
2023-01-13T07:39:14.002Z,2.53
2023-01-13T07:40:16.031Z,1.52
2023-01-13T07:41:36.264Z,1.40
2023-01-13T07:42:57.508Z,1.88
2023-01-13T07:44:00.491Z,1.40
2023-01-13T07:45:03.284Z,1.73
2023-01-13T07:46:06.672Z,2.25
2023-01-13T07:47:10.533Z,1.73
2023-01-13T07:48:12.355Z,1.50
2023-01-13T07:49:14.383Z,2.35
2023-01-13T07:50:16.337Z,2.25
2023-01-13T07:51:18.169Z,1.20
2023-01-13T07:52:19.948Z,1.80
2023-01-13T07:53:24.919Z,3.10
2023-01-13T07:54:39.773Z,1.50
2023-01-13T07:55:43.870Z,1.75
2023-01-13T07:56:45.747Z,1.63
2023-01-13T07:57:48.581Z,1.73
2023-01-13T07:58:51.186Z,2.50
2023-01-13T07:59:53.007Z,1.83
2023-01-13T08:00:55.787Z,1.73
2023-01-13T08:01:57.879Z,1.92
2023-01-13T08:03:00.696Z,1.70
2023-01-13T08:04:02.628Z,1.90
2023-01-13T08:05:04.716Z,1.95
2023-01-13T08:06:07.201Z,1.80
2023-01-13T08:07:09.084Z,1.52
2023-01-13T08:08:11.114Z,2.85
2023-01-13T08:09:12.967Z,1.52
2023-01-13T08:10:14.866Z,4.03
2023-01-13T08:11:16.806Z,2.53
2023-01-13T08:12:37.248Z,1.38
2023-01-13T08:13:39.161Z,2.30
2023-01-13T08:14:41.010Z,2.00
2023-01-13T08:15:43.336Z,1.88
2023-01-13T08:16:45.232Z,3.45
2023-01-13T08:17:47.278Z,2.00
2023-01-13T08:18:49.112Z,1.58
2023-01-13T08:19:50.920Z,1.92
2023-01-13T08:20:54.172Z,2.00
2023-01-13T08:21:57.288Z,2.65
2023-01-13T08:23:00.235Z,1.60
2023-01-13T08:24:02.088Z,2.42
2023-01-13T08:25:04.837Z,2.60
2023-01-13T08:26:12.856Z,3.38
2023-01-13T08:27:14.657Z,3.05
2023-01-13T08:28:17.604Z,1.88
2023-01-13T08:29:19.378Z,2.50
2023-01-13T08:30:21.675Z,2.58
2023-01-13T08:31:23.476Z,2.78
2023-01-13T08:32:25.544Z,2.63
2023-01-13T08:33:27.867Z,1.60
2023-01-13T08:34:29.732Z,2.05
2023-01-13T08:35:31.703Z,2.17
2023-01-13T08:36:33.468Z,2.25
2023-01-13T08:37:35.448Z,2.63
2023-01-13T08:38:37.855Z,1.98
2023-01-13T08:39:39.661Z,2.20
2023-01-13T08:40:41.578Z,1.90
2023-01-13T08:41:56.421Z,2.55
2023-01-13T08:42:59.281Z,1.65
2023-01-13T08:44:01.099Z,2.00
2023-01-13T08:45:03.041Z,2.17
2023-01-13T08:46:05.223Z,1.92
2023-01-13T08:47:07.024Z,2.85
2023-01-13T08:48:09.249Z,2.85
2023-01-13T08:49:11.094Z,3.35
2023-01-13T08:50:13.055Z,1.83
2023-01-13T08:51:14.855Z,2.25
2023-01-13T08:52:16.838Z,1.60
2023-01-13T08:53:18.940Z,2.05
2023-01-13T08:54:20.865Z,1.98
2023-01-13T08:55:23.138Z,2.60
2023-01-13T08:56:24.944Z,2.17
2023-01-13T08:57:26.800Z,2.53
2023-01-13T08:58:28.888Z,1.83
2023-01-13T08:59:30.901Z,2.20
2023-01-13T09:00:32.708Z,1.63
2023-01-13T09:01:34.694Z,2.10
2023-01-13T09:02:38.506Z,2.45
2023-01-13T09:03:41.880Z,1.83
2023-01-13T09:04:44.731Z,1.95
2023-01-13T09:05:46.538Z,1.85
2023-01-13T09:06:48.751Z,2.25
2023-01-13T09:07:50.632Z,1.63
2023-01-13T09:08:52.482Z,2.10
2023-01-13T09:09:56.212Z,2.45
2023-01-13T09:10:58.145Z,2.80
2023-01-13T09:12:18.318Z,1.63
2023-01-13T09:13:21.812Z,1.50
2023-01-13T09:14:25.970Z,2.15
2023-01-13T09:15:27.978Z,1.65
2023-01-13T09:16:29.892Z,2.53
2023-01-13T09:17:31.665Z,2.58
2023-01-13T09:18:33.479Z,1.80
2023-01-13T09:19:35.601Z,1.95
2023-01-13T09:20:37.941Z,1.85
2023-01-13T09:21:39.745Z,1.55
2023-01-13T09:22:41.791Z,1.83
2023-01-13T09:23:43.549Z,1.73
2023-01-13T09:24:46.206Z,1.90
2023-01-13T09:25:49.255Z,1.50
2023-01-13T09:26:51.293Z,2.53
2023-01-13T09:27:53.166Z,1.92
2023-01-13T09:28:55.387Z,2.47
2023-01-13T09:29:57.181Z,1.40
2023-01-13T09:31:01.757Z,1.80
2023-01-13T09:32:04.797Z,2.13
2023-01-13T09:33:25.104Z,1.80
2023-01-13T09:34:45.642Z,1.10
2023-01-13T09:35:47.497Z,1.85
2023-01-13T09:36:49.569Z,1.27
2023-01-13T09:37:51.377Z,2.72
2023-01-13T09:38:53.298Z,2.45
2023-01-13T09:39:55.486Z,1.00
2023-01-13T09:40:57.328Z,1.25
2023-01-13T09:42:23.772Z,1.98
2023-01-13T09:43:54.444Z,1.17
2023-01-13T09:45:12.018Z,1.42
2023-01-13T09:46:44.246Z,1.73
2023-01-13T09:47:51.222Z,1.63
2023-01-13T09:48:53.270Z,2.17
2023-01-13T09:50:03.796Z,1.30
2023-01-13T09:51:10.063Z,1.27
2023-01-13T09:52:26.946Z,1.92
2023-01-13T09:53:34.109Z,1.27
2023-01-13T09:54:46.037Z,2.25
2023-01-13T09:55:47.835Z,2.15
2023-01-13T09:56:49.733Z,1.33
2023-01-13T09:57:51.511Z,1.63
2023-01-13T09:58:53.431Z,1.45
2023-01-13T09:59:55.234Z,1.27
2023-01-13T10:01:15.639Z,2.08
2023-01-13T10:02:23.150Z,1.95
2023-01-13T10:03:30.013Z,2.08
2023-01-13T10:04:31.882Z,1.77
2023-01-13T10:05:41.339Z,1.73
2023-01-13T10:06:48.340Z,1.52
2023-01-13T10:07:54.749Z,1.23
2023-01-13T10:08:57.733Z,3.00
2023-01-13T10:10:02.146Z,2.05
2023-01-13T10:11:25.506Z,2.63
2023-01-13T10:12:45.900Z,1.77
2023-01-13T10:13:52.406Z,1.50
2023-01-13T10:14:57.235Z,1.95
2023-01-13T10:16:42.215Z,3.25
2023-01-13T10:18:11.502Z,1.40
2023-01-13T10:19:25.962Z,1.08
2023-01-13T10:20:45.114Z,1.15
2023-01-13T10:22:18.127Z,1.30
2023-01-13T10:23:19.904Z,3.33
2023-01-13T10:24:40.172Z,1.35
2023-01-13T10:25:50.852Z,1.50
2023-01-13T10:26:57.100Z,2.15
2023-01-13T10:28:08.644Z,1.30
2023-01-13T10:29:22.217Z,2.22
2023-01-13T10:30:31.440Z,1.80
2023-01-13T10:31:33.378Z,1.58
2023-01-13T10:32:35.199Z,2.28
2023-01-13T10:33:36.978Z,1.80
2023-01-13T10:34:51.249Z,1.90
2023-01-13T10:36:01.653Z,1.92
2023-01-13T10:37:09.348Z,1.75
2023-01-13T10:38:22.878Z,2.55
2023-01-13T10:39:25.392Z,1.75
2023-01-13T10:40:27.185Z,2.00
2023-01-13T10:41:29.070Z,3.00
2023-01-13T10:42:30.920Z,1.45
2023-01-13T10:43:32.917Z,1.70
2023-01-13T10:44:55.451Z,2.83
2023-01-13T10:46:06.288Z,1.27
2023-01-13T10:47:29.037Z,1.75
2023-01-13T10:48:38.638Z,2.17
2023-01-13T10:49:40.581Z,1.80
2023-01-13T10:50:42.856Z,1.60
2023-01-13T10:51:45.244Z,1.65
2023-01-13T10:52:57.753Z,1.98
2023-01-13T10:54:13.227Z,1.42
2023-01-13T10:55:38.665Z,1.63
2023-01-13T10:56:43.157Z,1.50
2023-01-13T10:57:44.940Z,1.85
2023-01-13T10:58:47.122Z,1.73
2023-01-13T10:59:50.987Z,1.48
2023-01-13T11:01:02.126Z,1.30
2023-01-13T11:02:25.313Z,1.77
2023-01-13T11:03:37.678Z,1.85
2023-01-13T11:04:45.129Z,1.25
2023-01-13T11:05:58.941Z,1.02
2023-01-13T11:07:02.585Z,1.35
2023-01-13T11:08:05.286Z,1.92
2023-01-13T11:09:19.742Z,1.65
2023-01-13T11:10:27.516Z,1.65
2023-01-13T11:11:43.844Z,1.58
2023-01-13T11:13:14.513Z,1.50
2023-01-13T11:14:39.510Z,1.45
2023-01-13T11:16:16.601Z,1.23
2023-01-13T11:17:18.353Z,2.55
2023-01-13T11:18:25.932Z,1.83
2023-01-13T11:19:31.843Z,1.88
2023-01-13T11:20:41.289Z,1.10
2023-01-13T11:22:05.812Z,1.52
2023-01-13T11:23:16.555Z,1.88
2023-01-13T11:24:31.058Z,1.67
2023-01-13T11:25:43.519Z,1.33
2023-01-13T11:27:08.398Z,2.13
2023-01-13T11:28:36.243Z,1.65
2023-01-13T11:29:39.950Z,1.90
2023-01-13T11:31:07.941Z,1.60
2023-01-13T11:32:17.878Z,2.20
2023-01-13T11:33:37.829Z,2.30
2023-01-13T11:34:42.051Z,1.10
2023-01-13T11:36:06.382Z,2.45
2023-01-13T11:37:21.520Z,1.67
2023-01-13T11:38:47.816Z,2.42
2023-01-13T11:39:58.128Z,1.83
2023-01-13T11:41:33.241Z,1.98
2023-01-13T11:42:54.658Z,2.55
2023-01-13T11:44:23.547Z,1.65
2023-01-13T11:45:44.488Z,1.40
2023-01-13T11:46:50.194Z,2.10
2023-01-13T11:47:57.240Z,2.58
2023-01-13T11:49:00.906Z,2.53
2023-01-13T11:50:04.141Z,2.60
2023-01-13T11:51:22.983Z,1.65
2023-01-13T11:52:30.816Z,1.95
2023-01-13T11:53:44.685Z,2.28
2023-01-13T11:54:55.323Z,2.80
2023-01-13T11:56:15.911Z,1.73
2023-01-13T11:57:32.879Z,2.13
2023-01-13T11:58:49.639Z,1.25
2023-01-13T12:00:10.882Z,2.55
2023-01-13T12:01:34.518Z,1.77
2023-01-13T12:02:57.170Z,2.08
2023-01-13T12:04:13.237Z,1.40
2023-01-13T12:05:38.673Z,1.88
2023-01-13T12:06:41.988Z,1.90
2023-01-13T12:08:11.072Z,3.08
2023-01-13T12:09:41.884Z,2.08
2023-01-13T12:11:11.988Z,1.60
2023-01-13T12:12:43.305Z,1.90
2023-01-13T12:14:16.927Z,2.00
2023-01-13T12:15:22.267Z,2.67
2023-01-13T12:16:30.559Z,2.03
2023-01-13T12:17:41.566Z,2.28
2023-01-13T12:19:01.919Z,1.98
2023-01-13T12:20:33.277Z,3.30
2023-01-13T12:21:50.298Z,2.40
2023-01-13T12:22:56.870Z,3.53
2023-01-13T12:24:13.886Z,2.67
2023-01-13T12:25:27.991Z,2.10
2023-01-13T12:26:35.816Z,2.10
2023-01-13T12:27:45.837Z,2.05
2023-01-13T12:28:56.684Z,3.33
2023-01-13T12:30:02.436Z,2.95
2023-01-13T12:31:04.487Z,2.65
2023-01-13T12:32:16.533Z,2.38
2023-01-13T12:33:54.818Z,3.33
2023-01-13T12:35:09.114Z,2.80
2023-01-13T12:36:32.677Z,2.83
2023-01-13T12:37:42.909Z,3.30
2023-01-13T12:38:58.663Z,2.08
2023-01-13T12:40:22.093Z,3.58
2023-01-13T12:42:01.030Z,2.45
2023-01-13T12:43:37.539Z,2.75
2023-01-13T12:45:25.030Z,2.95
2023-01-13T12:46:26.788Z,2.78
2023-01-13T12:47:38.153Z,2.45
2023-01-13T12:49:00.764Z,2.38
2023-01-13T12:50:27.084Z,2.67
2023-01-13T12:51:35.646Z,2.03
2023-01-13T12:52:46.575Z,4.20
2023-01-13T12:53:48.776Z,2.13
2023-01-13T12:54:50.584Z,2.58
2023-01-13T12:55:53.200Z,3.13
2023-01-13T12:56:55.311Z,2.60
2023-01-13T12:58:00.298Z,2.53
2023-01-13T12:59:17.562Z,2.00
2023-01-13T13:00:19.855Z,2.40
2023-01-13T13:01:35.764Z,2.47
2023-01-13T13:03:12.494Z,2.58
2023-01-13T13:04:18.496Z,2.15
2023-01-13T13:05:23.256Z,1.95
2023-01-13T13:06:31.316Z,2.70
2023-01-13T13:07:41.851Z,2.67
2023-01-13T13:08:57.422Z,2.88
2023-01-13T13:10:17.530Z,2.03
2023-01-13T13:11:50.077Z,2.08
2023-01-13T13:13:18.584Z,2.80
2023-01-13T13:14:55.682Z,2.13
2023-01-13T13:16:26.456Z,2.00
2023-01-13T13:17:28.269Z,3.85
2023-01-13T13:18:30.461Z,2.28
2023-01-13T13:19:32.233Z,3.90
2023-01-13T13:21:04.231Z,2.65
2023-01-13T13:22:12.226Z,3.47
2023-01-13T13:23:55.196Z,3.58
2023-01-13T13:24:59.959Z,3.83
2023-01-13T13:26:20.293Z,3.53
2023-01-13T13:27:27.464Z,4.65
2023-01-13T13:28:37.155Z,3.58
2023-01-13T13:30:00.491Z,3.40
2023-01-13T13:31:19.686Z,3.83
2023-01-13T13:32:39.828Z,3.80
2023-01-13T13:34:13.879Z,5.28
2023-01-13T13:35:26.408Z,4.35
2023-01-13T13:36:40.041Z,3.33
2023-01-13T13:38:40.655Z,3.47
2023-01-13T13:40:02.748Z,3.15
2023-01-13T13:41:54.281Z,3.10
2023-01-13T13:43:32.474Z,2.50
2023-01-13T13:44:58.169Z,3.55
2023-01-13T13:46:18.628Z,3.50
2023-01-13T13:47:20.893Z,3.10
2023-01-13T13:48:28.268Z,3.35
2023-01-13T13:49:42.946Z,3.38
2023-01-13T13:50:49.138Z,4.13
2023-01-13T13:52:04.298Z,3.33
2023-01-13T13:53:09.371Z,2.40
2023-01-13T13:54:19.292Z,2.83
2023-01-13T13:55:29.864Z,2.60
2023-01-13T13:56:38.468Z,2.70
2023-01-13T13:57:43.557Z,2.42
2023-01-13T13:58:48.280Z,3.00
2023-01-13T13:59:55.142Z,2.47
2023-01-13T14:00:58.597Z,4.03
2023-01-13T14:02:03.683Z,2.95
2023-01-13T14:03:19.741Z,2.78
2023-01-13T14:04:26.074Z,2.40
2023-01-13T14:05:34.114Z,3.65
2023-01-13T14:06:35.976Z,3.80
2023-01-13T14:07:46.662Z,3.50
2023-01-13T14:08:50.404Z,1.92
2023-01-13T14:09:54.588Z,3.10
2023-01-13T14:10:56.872Z,2.85
2023-01-13T14:12:01.656Z,2.63
2023-01-13T14:13:18.110Z,2.33
2023-01-13T14:14:21.145Z,2.97
2023-01-13T14:15:31.637Z,3.75
2023-01-13T14:16:36.283Z,3.38
2023-01-13T14:17:38.656Z,3.65
2023-01-13T14:18:47.710Z,2.70
2023-01-13T14:20:00.834Z,3.03
2023-01-13T14:21:24.574Z,2.45
2023-01-13T14:22:26.587Z,2.90
2023-01-13T14:23:31.032Z,3.75
2023-01-13T14:24:32.925Z,3.72
2023-01-13T14:25:45.860Z,2.90
2023-01-13T14:26:53.208Z,2.70
2023-01-13T14:27:57.485Z,3.55
2023-01-13T14:29:01.629Z,3.80
2023-01-13T14:30:04.523Z,2.83
2023-01-13T14:31:09.405Z,3.72
2023-01-13T14:32:17.535Z,2.83
2023-01-13T14:33:24.767Z,3.13
2023-01-13T14:34:32.200Z,3.53
2023-01-13T14:35:34.857Z,2.53
2023-01-13T14:36:37.902Z,3.60
2023-01-13T14:37:42.055Z,2.95
2023-01-13T14:38:48.844Z,3.47
2023-01-13T14:39:50.649Z,3.58
2023-01-13T14:40:52.543Z,3.80
2023-01-13T14:41:54.425Z,4.05
2023-01-13T14:43:00.548Z,3.53
2023-01-13T14:44:24.217Z,3.50
2023-01-13T14:45:26.997Z,3.40
2023-01-13T14:46:43.068Z,4.40
2023-01-13T14:47:53.232Z,2.72
2023-01-13T14:49:01.531Z,2.72
2023-01-13T14:50:10.314Z,3.35
2023-01-13T14:51:20.555Z,3.13
2023-01-13T14:52:24.938Z,3.58
2023-01-13T14:53:30.846Z,4.80
2023-01-13T14:54:41.785Z,3.40
2023-01-13T14:55:43.584Z,3.05
2023-01-13T14:56:55.212Z,3.70
2023-01-13T14:58:18.777Z,4.15
2023-01-13T14:59:43.970Z,3.38
2023-01-13T15:00:45.835Z,3.10
2023-01-13T15:01:47.722Z,3.28
2023-01-13T15:02:58.651Z,3.17
2023-01-13T15:04:18.070Z,3.33
2023-01-13T15:05:19.860Z,2.95
2023-01-13T15:06:26.232Z,2.67
2023-01-13T15:07:31.138Z,1.90
2023-01-13T15:08:36.632Z,3.72
2023-01-13T15:09:42.207Z,2.00